Time;durP1;ratioP1;P1;durP2;ratioP2;P2;SDS_P1;SDS_P2;PMS_P1;PMS_P2;Temp;Humidity;BMP_temperature;BMP_pressure;BME280_temperature;BME280_humidity;BME280_pressure;Samples;Min_cycle;Max_cycle;Signal;HPM_P1;HPM_P2
2023/04/09 00:01:07;;;;;;;30.80;12.18;;;;;;;2.89;100.00;101842.78;5153947;28;20029;-71
2023/04/09 00:03:37;;;;;;;30.73;10.85;;;;;;;2.98;100.00;101848.09;5155042;28;20034;-71
2023/04/09 00:06:10;;;;;;;31.27;12.50;;;;;;;3.00;100.00;101846.41;5157157;28;20080;-71
2023/04/09 00:08:40;;;;;;;34.20;12.95;;;;;;;3.17;100.00;101834.59;5155272;28;20041;-72
2023/04/09 00:11:11;;;;;;;32.22;11.52;;;;;;;3.19;100.00;101847.56;5159412;28;20153;-71
2023/04/09 00:13:41;;;;;;;29.60;11.73;;;;;;;3.28;100.00;101847.66;5160067;28;20030;-72
2023/04/09 00:16:11;;;;;;;28.17;11.98;;;;;;;3.19;100.00;101847.56;5138510;28;20026;-71
2023/04/09 00:18:41;;;;;;;28.00;10.68;;;;;;;3.34;100.00;101847.78;5154767;28;20032;-71
2023/04/09 00:21:12;;;;;;;21.88;10.10;;;;;;;3.08;100.00;101852.56;5160109;28;20062;-71
2023/04/09 00:23:42;;;;;;;28.75;10.57;;;;;;;2.95;100.00;101848.06;5155507;28;20030;-72
2023/04/09 00:26:13;;;;;;;26.52;9.30;;;;;;;3.20;100.00;101844.13;5157717;28;20432;-73
2023/04/09 00:28:43;;;;;;;29.60;10.77;;;;;;;3.03;100.00;101840.44;5140133;28;20484;-72
2023/04/09 00:31:13;;;;;;;33.45;11.55;;;;;;;2.76;100.00;101846.03;5139824;28;20034;-72
2023/04/09 00:33:44;;;;;;;34.10;12.00;;;;;;;2.94;100.00;101840.28;5145771;28;20403;-71
2023/04/09 00:36:14;;;;;;;30.98;11.32;;;;;;;2.86;100.00;101837.56;5158789;28;20034;-71
2023/04/09 00:38:46;;;;;;;33.10;11.70;;;;;;;3.01;100.00;101836.97;5184912;22;20024;-72
2023/04/09 00:41:16;;;;;;;33.13;12.88;;;;;;;2.83;100.00;101845.28;5166306;28;20034;-72
2023/04/09 00:43:47;;;;;;;36.00;13.18;;;;;;;3.08;100.00;101841.34;5161589;28;20034;-71
2023/04/09 00:46:17;;;;;;;30.00;12.35;;;;;;;2.84;100.00;101833.25;5165889;28;20038;-70
2023/04/09 00:48:48;;;;;;;34.72;12.90;;;;;;;2.86;100.00;101834.16;5149895;28;20425;-71
2023/04/09 00:51:18;;;;;;;30.33;11.60;;;;;;;2.94;100.00;101833.41;5158174;28;20121;-71
2023/04/09 00:53:49;;;;;;;32.50;12.95;;;;;;;3.10;100.00;101830.22;5159638;28;20046;-71
2023/04/09 00:56:22;;;;;;;53.50;17.67;;;;;;;2.93;100.00;101829.09;5165695;28;20128;-73
2023/04/09 00:58:52;;;;;;;47.53;16.52;;;;;;;2.83;100.00;101832.38;5165546;28;20030;-73
2023/04/09 01:01:23;;;;;;;47.25;16.25;;;;;;;2.73;100.00;101827.03;5167133;28;20030;-73
2023/04/09 01:03:53;;;;;;;45.80;15.05;;;;;;;2.88;100.00;101824.72;5165133;28;20022;-73
2023/04/09 01:06:49;;;;;;;36.22;12.18;;;;;;;2.91;100.00;101819.59;5160845;28;20121;-73
2023/04/09 01:09:26;;;;;;;38.78;12.43;;;;;;;2.74;100.00;101823.63;5142092;28;20058;-71
2023/04/09 01:12:23;;;;;;;25.17;11.23;;;;;;;2.80;100.00;101814.25;5170118;28;20022;-73
2023/04/09 01:14:58;;;;;;;29.30;10.88;;;;;;;2.82;100.00;101824.63;5161093;28;20019;-71
2023/04/09 01:17:28;;;;;;;27.50;10.50;;;;;;;2.91;100.00;101827.31;5158934;28;20253;-72
2023/04/09 01:20:09;;;;;;;27.30;10.80;;;;;;;2.85;100.00;101830.69;5166130;28;20109;-73
2023/04/09 01:22:51;;;;;;;26.67;10.35;;;;;;;2.65;100.00;101828.66;5165256;28;20435;-73
2023/04/09 01:25:47;;;;;;;21.30;9.80;;;;;;;2.56;100.00;101823.31;5167039;28;20529;-72
2023/04/09 01:28:22;;;;;;;20.45;9.68;;;;;;;2.54;100.00;101817.28;5151818;28;20042;-70
2023/04/09 01:31:00;;;;;;;22.05;10.82;;;;;;;2.34;100.00;101818.66;5160092;28;20051;-72
2023/04/09 01:33:32;;;;;;;25.48;9.65;;;;;;;2.43;100.00;101823.94;5155648;28;20030;-72
2023/04/09 01:36:04;;;;;;;21.60;10.25;;;;;;;2.66;100.00;101817.47;5146840;28;20022;-73
2023/04/09 01:38:36;;;;;;;24.20;10.38;;;;;;;2.71;100.00;101821.00;5148837;28;20504;-71
2023/04/09 01:41:10;;;;;;;22.00;9.57;;;;;;;2.66;100.00;101817.47;5167052;28;20037;-73
2023/04/09 01:43:41;;;;;;;22.77;10.35;;;;;;;2.45;100.00;101811.94;5170322;28;20030;-72
2023/04/09 01:46:12;;;;;;;25.13;10.75;;;;;;;2.74;100.00;101816.75;5178075;28;20045;-73
2023/04/09 01:48:43;;;;;;;22.90;10.30;;;;;;;2.89;100.00;101816.13;5172206;28;20030;-73
2023/04/09 01:51:14;;;;;;;29.05;11.32;;;;;;;2.76;100.00;101817.66;5168917;28;20476;-73
2023/04/09 01:53:44;;;;;;;27.92;11.07;;;;;;;2.76;100.00;101819.34;5160295;28;20045;-71
2023/04/09 01:56:15;;;;;;;27.85;10.07;;;;;;;2.89;100.00;101821.28;5155439;28;20030;-72
2023/04/09 01:58:45;;;;;;;27.75;11.25;;;;;;;2.86;100.00;101821.22;5168458;28;20414;-72
2023/04/09 02:01:26;;;;;;;36.80;13.38;;;;;;;2.53;100.00;101812.97;5169924;28;20062;-73
2023/04/09 02:04:01;;;;;;;26.80;10.80;;;;;;;2.68;100.00;101818.38;5168523;28;20033;-72
2023/04/09 02:06:52;;;;;;;31.25;11.63;;;;;;;2.65;100.00;101818.31;5161437;28;20489;-72
2023/04/09 02:09:23;;;;;;;33.00;10.95;;;;;;;2.60;100.00;101817.34;5141502;28;20046;-72
2023/04/09 02:11:57;;;;;;;21.27;10.23;;;;;;;2.67;100.00;101816.63;5163280;28;20030;-71
2023/04/09 02:14:30;;;;;;;19.27;10.20;;;;;;;2.65;100.00;101821.75;5169685;28;20496;-72
2023/04/09 02:17:00;;;;;;;28.67;11.57;;;;;;;2.70;100.00;101819.25;5161827;28;20117;-72
2023/04/09 02:19:45;;;;;;;22.42;9.80;;;;;;;2.88;100.00;101822.97;5179842;28;20117;-72
2023/04/09 02:22:16;;;;;;;21.60;10.47;;;;;;;3.08;100.00;101825.88;5175387;28;20076;-72
2023/04/09 02:24:46;;;;;;;24.05;9.80;;;;;;;3.07;100.00;101818.97;5171407;28;20431;-71
2023/04/09 02:27:16;;;;;;;27.30;10.68;;;;;;;2.96;100.00;101821.41;5169421;28;20117;-72
2023/04/09 02:29:47;;;;;;;22.00;10.15;;;;;;;3.06;100.00;101822.41;5173737;28;20029;-72
2023/04/09 02:32:17;;;;;;;21.38;10.80;;;;;;;3.10;100.00;101817.31;5169947;28;20034;-72
2023/04/09 02:34:47;;;;;;;19.60;9.60;;;;;;;3.23;100.00;101815.75;5176390;28;20057;-73
2023/04/09 02:37:17;;;;;;;22.92;10.07;;;;;;;3.06;100.00;101820.66;5180729;28;20061;-71
2023/04/09 02:39:48;;;;;;;22.30;9.63;;;;;;;3.10;100.00;101821.59;5178339;28;20034;-71
2023/04/09 02:42:19;;;;;;;19.35;9.85;;;;;;;3.14;100.00;101818.19;5154286;28;20470;-71
2023/04/09 02:44:49;;;;;;;21.45;10.50;;;;;;;3.13;100.00;101816.47;5177545;28;20029;-72
2023/04/09 02:47:19;;;;;;;24.25;10.75;;;;;;;3.14;100.00;101818.19;5162449;28;20069;-71
2023/04/09 02:49:50;;;;;;;20.40;10.07;;;;;;;3.23;100.00;101810.59;5172307;28;20035;-72
2023/04/09 02:52:23;;;;;;;21.15;10.10;;;;;;;3.28;100.00;101814.97;5174713;28;20034;-71
2023/04/09 02:54:53;;;;;;;22.25;10.07;;;;;;;3.21;100.00;101812.28;5168499;28;20066;-72
2023/04/09 02:57:23;;;;;;;19.55;10.70;;;;;;;3.32;100.00;101813.28;5167218;28;20056;-72
2023/04/09 02:59:54;;;;;;;23.08;10.45;;;;;;;3.19;100.00;101813.97;5174859;28;20030;-73
2023/04/09 03:02:24;;;;;;;23.42;10.68;;;;;;;3.19;100.00;101812.25;5175423;28;20442;-72
2023/04/09 03:04:55;;;;;;;21.70;10.35;;;;;;;3.29;100.00;101808.97;5167540;28;20304;-73
2023/04/09 03:07:25;;;;;;;23.48;11.38;;;;;;;3.47;100.00;101803.16;5166710;28;20033;-73
2023/04/09 03:09:55;;;;;;;20.17;10.00;;;;;;;3.23;100.00;101805.41;5148305;28;20209;-72
2023/04/09 03:12:26;;;;;;;19.17;10.27;;;;;;;3.43;100.00;101798.78;5168361;28;20041;-72
2023/04/09 03:14:56;;;;;;;23.40;10.63;;;;;;;3.44;100.00;101787.59;5168680;28;20022;-73
2023/04/09 03:17:26;;;;;;;24.73;10.88;;;;;;;3.53;100.00;101790.31;5155828;28;20036;-73
2023/04/09 03:19:57;;;;;;;23.75;10.77;;;;;;;3.34;100.00;101790.94;5172059;28;20029;-73
2023/04/09 03:22:27;;;;;;;20.63;10.20;;;;;;;3.48;100.00;101794.53;5170692;28;20096;-72
2023/04/09 03:24:57;;;;;;;21.85;10.18;;;;;;;3.37;100.00;101790.97;5175138;28;20037;-72
2023/04/09 03:27:28;;;;;;;20.50;10.02;;;;;;;3.33;100.00;101802.13;5166161;28;20033;-74
2023/04/09 03:29:58;;;;;;;20.55;10.13;;;;;;;3.48;100.00;101795.44;5172512;28;20299;-73
2023/04/09 03:32:28;;;;;;;22.67;10.43;;;;;;;3.55;100.00;101791.22;5169516;28;20574;-71
2023/04/09 03:34:59;;;;;;;23.50;10.10;;;;;;;3.53;100.00;101798.94;5173803;28;20045;-72
2023/04/09 03:37:29;;;;;;;22.15;10.43;;;;;;;3.54;100.00;101794.63;5163240;28;20036;-72
2023/04/09 03:39:59;;;;;;;26.30;12.10;;;;;;;3.48;100.00;101803.19;5170449;28;20085;-72
2023/04/09 03:42:30;;;;;;;22.00;10.50;;;;;;;3.46;100.00;101799.72;5175399;28;20026;-73
2023/04/09 03:45:00;;;;;;;26.05;10.82;;;;;;;3.52;100.00;101798.94;5176288;28;20469;-72
2023/04/09 03:47:31;;;;;;;21.88;10.77;;;;;;;3.36;100.00;101803.00;5168501;28;20036;-72
2023/04/09 03:50:02;;;;;;;25.48;11.35;;;;;;;3.31;100.00;101802.09;5173931;28;20026;-72
2023/04/09 03:52:32;;;;;;;22.23;11.02;;;;;;;3.39;100.00;101799.59;5176590;28;20053;-72
2023/04/09 03:55:03;;;;;;;21.45;11.23;;;;;;;3.38;100.00;101798.72;5167695;28;20460;-72
2023/04/09 03:57:34;;;;;;;20.52;10.55;;;;;;;3.37;100.00;101809.06;5174857;28;20499;-72
2023/04/09 04:00:05;;;;;;;21.98;10.43;;;;;;;3.38;100.00;101803.03;5167162;28;20034;-72
2023/04/09 04:02:35;;;;;;;20.98;10.32;;;;;;;3.43;100.00;101812.59;5175597;28;20030;-72
2023/04/09 04:05:05;;;;;;;23.92;10.98;;;;;;;3.56;100.00;101805.84;5157171;28;20030;-72
2023/04/09 04:07:36;;;;;;;18.92;9.40;;;;;;;3.35;100.00;101809.03;5175417;28;20114;-72
2023/04/09 04:10:07;;;;;;;19.83;10.77;;;;;;;3.55;100.00;101810.16;5167243;28;20026;-72
2023/04/09 04:12:37;;;;;;;25.55;12.18;;;;;;;3.31;100.00;101807.25;5175518;28;20059;-71
2023/04/09 04:15:08;;;;;;;25.08;11.63;;;;;;;3.43;100.00;101816.88;5171037;28;20029;-72
2023/04/09 04:17:38;;;;;;;24.48;11.55;;;;;;;3.26;100.00;101811.50;5151751;28;20030;-73
2023/04/09 04:20:09;;;;;;;25.05;11.65;;;;;;;3.34;100.00;101814.19;5171105;28;20037;-72
2023/04/09 04:22:39;;;;;;;25.60;11.60;;;;;;;3.37;100.00;101801.31;5180357;28;20038;-73
2023/04/09 04:25:09;;;;;;;27.25;12.23;;;;;;;3.35;100.00;101805.59;5174332;28;20038;-73
2023/04/09 04:27:43;;;;;;;30.23;13.05;;;;;;;3.45;100.00;101805.72;5179035;28;20034;-73
2023/04/09 04:30:13;;;;;;;29.08;13.35;;;;;;;3.47;100.00;101803.16;5145230;28;20374;-73
2023/04/09 04:32:43;;;;;;;27.58;12.13;;;;;;;3.58;100.00;101805.03;5170543;28;20037;-72
2023/04/09 04:35:14;;;;;;;24.80;11.20;;;;;;;3.64;100.00;101811.13;5177643;28;20022;-73
2023/04/09 04:37:44;;;;;;;25.52;11.25;;;;;;;3.66;100.00;101806.88;5171328;28;20052;-72
2023/04/09 04:40:14;;;;;;;25.45;11.27;;;;;;;3.77;100.00;101818.19;5172584;28;20033;-72
2023/04/09 04:42:44;;;;;;;22.40;11.63;;;;;;;3.80;100.00;101813.03;5173322;28;20062;-72
2023/04/09 04:45:15;;;;;;;23.40;11.13;;;;;;;3.81;100.00;101817.34;5167441;28;20084;-72
2023/04/09 04:47:45;;;;;;;20.98;10.30;;;;;;;3.89;100.00;101814.88;5175630;28;20266;-72
2023/04/09 04:50:15;;;;;;;22.95;11.75;;;;;;;3.91;100.00;101821.78;5176277;28;20144;-73
2023/04/09 04:52:46;;;;;;;23.95;10.73;;;;;;;4.01;100.00;101815.88;5166995;28;20027;-71
2023/04/09 04:55:16;;;;;;;26.10;11.32;;;;;;;3.99;100.00;101816.72;5166373;28;20369;-73
2023/04/09 04:57:46;;;;;;;22.17;10.85;;;;;;;3.96;100.00;101812.34;5174705;28;20056;-71
2023/04/09 05:00:17;;;;;;;24.02;11.40;;;;;;;4.00;100.00;101819.31;5169525;28;20041;-73
2023/04/09 05:02:48;;;;;;;20.38;10.80;;;;;;;4.05;100.00;101821.94;5161167;28;20105;-71
2023/04/09 05:05:18;;;;;;;24.95;10.98;;;;;;;3.99;100.00;101816.72;5159357;28;20034;-73
2023/04/09 05:07:48;;;;;;;23.50;11.02;;;;;;;4.06;100.00;101816.78;5156639;28;20030;-71
2023/04/09 05:10:19;;;;;;;21.02;11.20;;;;;;;4.19;100.00;101821.25;5170875;28;20488;-72
2023/04/09 05:12:49;;;;;;;25.42;10.68;;;;;;;4.23;100.00;101823.00;5176752;28;20030;-71
2023/04/09 05:15:20;;;;;;;25.73;11.70;;;;;;;4.22;100.00;101820.38;5170720;28;20031;-72
2023/04/09 05:17:50;;;;;;;24.27;11.50;;;;;;;4.19;100.00;101821.25;5162040;28;20029;-72
2023/04/09 05:20:20;;;;;;;23.08;11.02;;;;;;;4.22;100.00;101828.16;5177256;28;20023;-72
2023/04/09 05:22:51;;;;;;;28.95;12.77;;;;;;;4.21;100.00;101829.88;5173593;28;20104;-71
2023/04/09 05:25:21;;;;;;;29.73;13.90;;;;;;;4.09;100.00;101822.00;5163602;28;20041;-72
2023/04/09 05:27:51;;;;;;;28.88;12.52;;;;;;;4.21;100.00;101827.28;5164322;28;20117;-73
2023/04/09 05:30:21;;;;;;;27.80;13.35;;;;;;;4.28;100.00;101820.47;5176098;28;20388;-72
2023/04/09 05:32:52;;;;;;;27.65;13.10;;;;;;;4.38;100.00;101827.44;5179885;28;20026;-73
2023/04/09 05:35:22;;;;;;;30.05;13.27;;;;;;;4.57;100.00;101825.06;5155194;28;20027;-73
2023/04/09 05:37:52;;;;;;;29.73;14.05;;;;;;;4.50;100.00;101820.66;5139023;28;20015;-73
2023/04/09 05:40:23;;;;;;;32.17;15.57;;;;;;;4.54;100.00;101817.25;5173099;28;20044;-73
2023/04/09 05:42:53;;;;;;;34.78;14.63;;;;;;;4.67;100.00;101824.25;5168484;28;20023;-72
2023/04/09 05:45:23;;;;;;;27.42;12.57;;;;;;;4.70;100.00;101824.31;5182097;28;20487;-73
2023/04/09 05:47:54;;;;;;;26.70;11.48;;;;;;;4.83;100.00;101828.69;5174995;28;20026;-72
2023/04/09 05:50:24;;;;;;;23.35;11.40;;;;;;;4.97;100.00;101821.91;5167515;28;20035;-72
2023/04/09 05:52:54;;;;;;;24.25;11.65;;;;;;;4.90;100.00;101822.72;5154767;28;20030;-72
2023/04/09 05:55:25;;;;;;;22.50;11.00;;;;;;;4.97;100.00;101827.09;5172344;28;20049;-73
2023/04/09 05:57:56;;;;;;;23.20;10.50;;;;;;;5.05;100.00;101828.00;5160501;28;20031;-72
2023/04/09 06:00:26;;;;;;;22.52;12.20;;;;;;;5.10;100.00;101826.31;5165826;28;20186;-72
2023/04/09 06:02:56;;;;;;;22.15;11.65;;;;;;;5.16;100.00;101821.16;5181464;28;20026;-74
2023/04/09 06:05:27;;;;;;;20.40;10.75;;;;;;;5.33;100.00;101819.53;5175432;28;20121;-73
2023/04/09 06:07:57;;;;;;;23.50;11.10;;;;;;;5.30;100.00;101824.69;5181432;28;20391;-73
2023/04/09 06:10:28;;;;;;;24.33;12.65;;;;;;;5.40;100.00;101814.38;5178432;28;20087;-73
2023/04/09 06:12:58;;;;;;;24.20;11.63;;;;;;;5.36;100.00;101827.31;5156903;28;20030;-72
2023/04/09 06:15:28;;;;;;;29.20;11.60;;;;;;;5.51;100.00;101832.59;5157767;28;20019;-72
2023/04/09 06:17:59;;;;;;;26.13;11.07;;;;;;;5.49;100.00;101823.94;5166364;28;20057;-73
2023/04/09 06:20:29;;;;;;;24.67;11.77;;;;;;;5.72;100.00;101832.72;5165413;28;20034;-72
2023/04/09 06:22:59;;;;;;;24.55;11.82;;;;;;;5.81;100.00;101832.75;5171309;28;20033;-72
2023/04/09 06:25:30;;;;;;;26.65;11.77;;;;;;;5.51;100.00;101848.13;5164681;28;20034;-72
2023/04/09 06:28:00;;;;;;;22.63;11.27;;;;;;;5.52;100.00;101849.88;5163262;28;20411;-72
2023/04/09 06:30:30;;;;;;;21.73;10.60;;;;;;;5.58;100.00;101849.94;5169513;28;20069;-72
2023/04/09 06:33:01;;;;;;;21.05;10.88;;;;;;;5.47;100.00;101852.47;5163646;28;20058;-74
2023/04/09 06:35:31;;;;;;;26.98;11.32;;;;;;;5.49;100.00;101855.03;5172587;28;20018;-72
2023/04/09 06:38:01;;;;;;;21.55;10.68;;;;;;;5.58;100.00;101852.53;5139988;28;20374;-73
2023/04/09 06:40:32;;;;;;;22.88;10.88;;;;;;;5.75;100.00;101854.31;5165437;28;20434;-72
2023/04/09 06:43:02;;;;;;;22.33;10.75;;;;;;;5.70;100.00;101849.97;5156291;28;20034;-73
2023/04/09 06:45:32;;;;;;;24.38;12.05;;;;;;;5.70;100.00;101847.38;5160342;28;20058;-73
2023/04/09 06:48:03;;;;;;;24.10;11.65;;;;;;;5.75;100.00;101849.13;5173119;28;20037;-72
2023/04/09 06:50:33;;;;;;;24.48;10.80;;;;;;;5.79;100.00;101856.13;5157004;28;20060;-73
2023/04/09 06:53:05;;;;;;;24.15;11.13;;;;;;;5.90;100.00;101853.56;5173124;28;20065;-73
2023/04/09 06:55:35;;;;;;;23.33;11.30;;;;;;;6.13;100.00;101849.31;5163403;28;20035;-72
2023/04/09 06:58:05;;;;;;;20.85;11.10;;;;;;;6.17;100.00;101848.44;5156762;28;20068;-73
2023/04/09 07:00:36;;;;;;;23.95;11.70;;;;;;;6.21;100.00;101852.75;5164741;28;20034;-72
2023/04/09 07:03:07;;;;;;;21.33;10.77;;;;;;;6.31;100.00;101841.56;5163594;28;20073;-73
2023/04/09 07:05:38;;;;;;;25.60;11.95;;;;;;;6.25;100.00;101849.34;5161843;28;20453;-73
2023/04/09 07:08:08;;;;;;;26.10;11.60;;;;;;;6.31;100.00;101849.34;5155812;28;20298;-72
2023/04/09 07:10:38;;;;;;;23.90;11.48;;;;;;;6.35;100.00;101857.16;5154469;28;20500;-72
2023/04/09 07:13:09;;;;;;;25.52;11.77;;;;;;;6.32;100.00;101846.75;5171346;28;20037;-73
2023/04/09 07:15:39;;;;;;;28.00;11.63;;;;;;;6.39;100.00;101852.84;5165299;28;20034;-73
2023/04/09 07:18:10;;;;;;;24.95;11.50;;;;;;;6.62;100.00;101853.72;5147636;28;20140;-72
2023/04/09 07:20:40;;;;;;;27.02;11.63;;;;;;;6.61;100.00;101850.25;5157011;28;20034;-72
2023/04/09 07:23:10;;;;;;;25.05;11.77;;;;;;;6.41;100.00;101853.69;5163880;28;20715;-72
2023/04/09 07:25:41;;;;;;;29.17;12.18;;;;;;;6.57;100.00;101855.47;5163214;28;20022;-73
2023/04/09 07:28:11;;;;;;;24.73;10.82;;;;;;;6.87;100.00;101858.03;5160039;28;20026;-73
2023/04/09 07:30:41;;;;;;;28.00;12.30;;;;;;;6.76;100.00;101850.25;5163814;28;20030;-72
2023/04/09 07:33:12;;;;;;;27.67;11.85;;;;;;;6.58;100.00;101849.41;5158923;28;20049;-71
2023/04/09 07:35:42;;;;;;;28.25;12.35;;;;;;;6.73;100.00;101852.00;5158161;28;20023;-71
2023/04/09 07:38:12;;;;;;;24.67;12.30;;;;;;;7.02;100.00;101850.25;5162563;28;20401;-73
2023/04/09 07:40:43;;;;;;;28.85;13.00;;;;;;;6.95;100.00;101858.94;5160788;28;20029;-73
2023/04/09 07:43:13;;;;;;;27.92;13.38;;;;;;;7.12;100.00;101852.81;5172222;28;20109;-71
2023/04/09 07:45:43;;;;;;;29.33;12.85;;;;;;;7.29;100.00;101854.56;5152679;28;20045;-73
2023/04/09 07:48:14;;;;;;;30.85;13.27;;;;;;;7.27;100.00;101846.75;5161844;28;20490;-73
2023/04/09 07:50:44;;;;;;;33.28;13.93;;;;;;;7.52;100.00;101847.53;5164895;28;20034;-73
2023/04/09 07:53:15;;;;;;;27.45;12.27;;;;;;;7.42;100.00;101848.47;5146081;28;20038;-72
2023/04/09 07:55:45;;;;;;;27.50;13.25;;;;;;;7.56;100.00;101845.81;5144561;28;20018;-72
2023/04/09 07:58:16;;;;;;;33.20;13.82;;;;;;;7.65;100.00;101844.03;5162960;28;20385;-74
2023/04/09 08:00:47;;;;;;;34.63;15.00;;;;;;;7.66;100.00;101852.72;5158287;28;20030;-73
2023/04/09 08:03:18;;;;;;;37.38;14.93;;;;;;;7.69;100.00;101857.91;5166185;28;20053;-73
2023/04/09 08:05:48;;;;;;;36.53;14.57;;;;;;;7.81;100.00;101853.53;5165591;28;20050;-73
2023/04/09 08:08:18;;;;;;;32.20;14.18;;;;;;;7.72;100.00;101855.31;5165704;28;20113;-73
2023/04/09 08:10:49;;;;;;;32.03;13.77;;;;;;;7.42;100.00;101860.59;5168155;28;20030;-72
2023/04/09 08:13:22;;;;;;;30.35;13.50;;;;;;;7.60;100.00;101852.72;5165161;28;20026;-72
2023/04/09 08:15:53;;;;;;;32.13;13.95;;;;;;;7.50;100.00;101853.66;5165738;28;20596;-73
2023/04/09 08:18:23;;;;;;;32.03;13.98;;;;;;;7.51;100.00;101858.81;5165533;28;20053;-74
2023/04/09 08:20:54;;;;;;;28.65;12.45;;;;;;;7.69;100.00;101855.31;5173453;28;20053;-73
2023/04/09 08:23:24;;;;;;;33.20;13.70;;;;;;;7.66;100.00;101858.78;5140974;28;20447;-74
2023/04/09 08:25:55;;;;;;;33.25;14.10;;;;;;;7.68;100.00;101862.25;5161178;28;20117;-73
2023/04/09 08:28:25;;;;;;;39.08;15.95;;;;;;;7.60;100.00;101866.63;5156654;28;20511;-73
2023/04/09 08:30:55;;;;;;;35.03;14.27;;;;;;;7.60;100.00;101853.63;5170306;28;20037;-72
2023/04/09 08:33:26;;;;;;;38.78;17.50;;;;;;;7.64;100.00;101857.94;5167820;28;20030;-74
2023/04/09 08:35:56;;;;;;;34.30;14.05;;;;;;;7.74;100.00;101857.00;5165870;28;20395;-74
2023/04/09 08:38:26;;;;;;;31.00;14.75;;;;;;;7.65;100.00;101851.84;5164032;28;20030;-74
2023/04/09 08:40:56;;;;;;;31.75;15.18;;;;;;;7.73;100.00;101855.28;5156752;28;20029;-72
2023/04/09 08:43:28;;;;;;;32.70;13.93;;;;;;;7.58;100.00;101857.97;5143917;28;20464;-74
2023/04/09 08:46:01;;;;;;;36.10;15.13;;;;;;;7.68;100.00;101857.03;5161976;28;20180;-74
2023/04/09 08:48:32;;;;;;;31.88;14.57;;;;;;;7.73;100.00;101859.63;5161557;28;20040;-73
2023/04/09 08:51:02;;;;;;;29.67;14.20;;;;;;;7.87;100.00;101856.09;5165292;28;20488;-73
2023/04/09 08:53:35;;;;;;;30.40;14.48;;;;;;;7.88;100.00;101851.78;5149172;28;20041;-74
2023/04/09 08:56:05;;;;;;;41.92;17.48;;;;;;;8.15;100.00;101859.44;5166661;28;20018;-73
2023/04/09 08:58:35;;;;;;;35.40;14.40;;;;;;;8.19;100.00;101862.06;5163217;28;20674;-73
2023/04/09 09:01:30;;;;;;;35.85;15.80;;;;;;;8.33;100.00;101867.16;5147923;28;20025;-74
2023/04/09 09:04:08;;;;;;;29.17;14.10;;;;;;;8.31;100.00;101866.31;5161454;28;20030;-74
2023/04/09 09:06:40;;;;;;;34.47;15.18;;;;;;;8.30;100.00;101852.44;5162710;28;20507;-73
2023/04/09 09:09:12;;;;;;;32.00;14.48;;;;;;;8.41;100.00;101858.44;5146004;28;20031;-75
2023/04/09 09:11:49;;;;;;;83.70;32.72;;;;;;;8.61;100.00;101863.53;5166457;28;20049;-72
2023/04/09 09:14:19;;;;;;;85.85;33.53;;;;;;;8.75;100.00;101854.72;5147928;28;20026;-73
2023/04/09 09:16:56;;;;;;;33.63;15.13;;;;;;;8.90;100.00;101853.75;5165794;28;20563;-73
2023/04/09 09:19:29;;;;;;;34.35;16.00;;;;;;;8.86;99.30;101852.91;5165365;28;20089;-74
2023/04/09 09:22:02;;;;;;;30.63;13.68;;;;;;;8.96;99.14;101854.56;5164498;28;20026;-73
2023/04/09 09:24:33;;;;;;;30.17;14.20;;;;;;;9.26;99.50;101846.44;5158798;28;20459;-73
2023/04/09 09:27:03;;;;;;;29.38;14.05;;;;;;;10.39;92.89;101841.59;5160798;28;20109;-73
2023/04/09 09:29:40;;;;;;;30.00;13.57;;;;;;;10.87;89.98;101847.81;5152143;28;20399;-74
2023/04/09 09:32:12;;;;;;;26.00;13.32;;;;;;;11.21;85.87;101839.34;5161991;28;20427;-74
2023/04/09 09:34:56;;;;;;;27.88;13.82;;;;;;;11.78;83.96;101840.91;5141599;28;20023;-74
2023/04/09 09:37:28;;;;;;;25.23;13.10;;;;;;;12.19;83.34;101828.66;5165781;28;20022;-74
2023/04/09 09:39:59;;;;;;;25.75;13.07;;;;;;;11.69;84.06;101831.47;5165402;28;20581;-74
2023/04/09 09:42:30;;;;;;;24.23;12.32;;;;;;;12.65;84.84;101831.06;5161858;28;20030;-75
2023/04/09 09:45:16;;;;;;;23.33;12.40;;;;;;;12.47;79.84;101829.72;5161985;28;20077;-74
2023/04/09 09:47:47;;;;;;;25.42;13.20;;;;;;;11.86;82.71;101832.00;5156901;28;20402;-74
2023/04/09 09:50:18;;;;;;;24.05;12.73;;;;;;;12.16;79.83;101825.22;5162782;28;20121;-74
2023/04/09 09:52:53;;;;;;;22.38;12.60;;;;;;;11.65;83.72;101828.94;5160777;28;20416;-72
2023/04/09 09:55:25;;;;;;;25.30;12.43;;;;;;;12.08;80.35;101832.38;5157004;28;20022;-75
2023/04/09 09:58:00;;;;;;;24.63;13.20;;;;;;;11.92;81.65;101825.75;5162034;28;20053;-74
2023/04/09 10:00:31;;;;;;;26.13;12.73;;;;;;;10.85;81.91;101834.75;5161996;28;20022;-72
2023/04/09 10:03:11;;;;;;;27.52;13.80;;;;;;;11.02;83.08;101826.63;5160631;28;20288;-73
2023/04/09 10:05:41;;;;;;;27.20;13.18;;;;;;;11.03;83.59;101832.69;5146694;28;20032;-73
2023/04/09 10:08:12;;;;;;;26.90;13.40;;;;;;;11.81;82.80;101827.72;5157421;28;20033;-74
2023/04/09 10:10:43;;;;;;;23.52;13.00;;;;;;;11.95;79.73;101818.69;5151389;28;20395;-74
2023/04/09 10:13:28;;;;;;;39.22;20.00;;;;;;;12.22;82.53;101814.59;5161876;28;20033;-73
2023/04/09 10:15:59;;;;;;;47.75;18.90;;;;;;;12.24;78.39;101818.91;5155092;28;20088;-74
2023/04/09 10:18:32;;;;;;;25.92;12.63;;;;;;;11.84;76.85;101819.81;5162274;28;20029;-73
2023/04/09 10:21:16;;;;;;;25.20;13.25;;;;;;;11.58;80.03;101815.09;5147383;28;20042;-73
2023/04/09 10:23:49;;;;;;;27.65;15.05;;;;;;;11.71;81.25;101811.34;5150286;28;20026;-73
2023/04/09 10:26:21;;;;;;;25.75;13.70;;;;;;;11.46;80.85;101817.91;5153245;28;20496;-74
2023/04/09 10:29:13;;;;;;;25.88;12.98;;;;;;;11.01;79.67;101811.81;5151992;28;20151;-74
2023/04/09 10:32:01;;;;;;;26.67;14.18;;;;;;;11.71;80.87;101805.22;5157646;28;20514;-72
2023/04/09 10:34:38;;;;;;;26.77;13.32;;;;;;;11.96;81.27;101802.06;5158773;28;20126;-74
2023/04/09 10:37:19;;;;;;;25.70;13.77;;;;;;;11.51;79.96;101804.75;5139987;28;20038;-73
2023/04/09 10:39:51;;;;;;;25.48;13.45;;;;;;;10.94;81.25;101804.94;5156800;28;20458;-74
2023/04/09 10:42:26;;;;;;;29.23;14.88;;;;;;;11.62;85.31;101792.34;5169940;28;20027;-74
2023/04/09 10:45:10;;;;;;;27.17;14.00;;;;;;;11.84;80.98;101791.00;5162283;28;20429;-73
2023/04/09 10:47:42;;;;;;;29.98;15.07;;;;;;;11.44;82.40;101795.28;5164571;28;20083;-74
2023/04/09 10:50:15;;;;;;;28.13;14.43;;;;;;;11.16;83.95;101786.22;5159708;28;20039;-73
2023/04/09 10:52:50;;;;;;;30.85;14.27;;;;;;;11.21;82.39;101794.84;5170155;28;20025;-73
2023/04/09 10:55:40;;;;;;;26.70;13.63;;;;;;;11.19;81.45;101787.03;5162179;28;20026;-74
2023/04/09 10:58:11;;;;;;;28.60;14.10;;;;;;;11.19;81.66;101799.25;5161457;28;20058;-74
2023/04/09 11:00:43;;;;;;;28.65;14.73;;;;;;;11.65;80.16;101785.25;5170082;28;20081;-74
2023/04/09 11:03:14;;;;;;;27.85;14.73;;;;;;;11.32;81.47;101785.94;5141869;28;20023;-72
2023/04/09 11:05:48;;;;;;;26.63;13.95;;;;;;;11.42;79.67;101779.59;5170481;28;20088;-73
2023/04/09 11:08:20;;;;;;;27.08;12.90;;;;;;;12.17;79.80;101778.03;5146534;28;20038;-73
2023/04/09 11:10:55;;;;;;;30.98;15.32;;;;;;;11.89;78.58;101773.41;5141334;28;20500;-73
2023/04/09 11:13:26;;;;;;;43.30;21.42;;;;;;;12.20;76.24;101772.72;5147401;28;20109;-74
2023/04/09 11:15:58;;;;;;;39.33;18.83;;;;;;;12.26;75.95;101769.94;5166940;28;20087;-73
2023/04/09 11:18:29;;;;;;;37.33;19.05;;;;;;;12.31;77.55;101775.91;5146067;28;20027;-74
2023/04/09 11:21:03;;;;;;;39.80;19.23;;;;;;;11.87;77.08;101772.59;5166096;28;20501;-72
2023/04/09 11:23:33;;;;;;;30.83;16.98;;;;;;;12.09;78.14;101766.84;5164193;28;20081;-73
2023/04/09 11:26:04;;;;;;;38.70;18.95;;;;;;;11.78;77.31;101762.31;5162397;28;20025;-74
2023/04/09 11:28:34;;;;;;;66.57;29.92;;;;;;;11.73;78.90;101766.78;5160839;28;20029;-74
2023/04/09 11:31:05;;;;;;;54.42;27.10;;;;;;;11.50;80.24;101771.59;5160313;28;20133;-74